Karl Müller

Olheiro - Werder Bremen
21 Fev 2027
Domingo
Processo

Personalidade

Adaptabilidade (5) Ambição (11) Controvérsia (17) Lealdade (8) Pressão (6) Profissionalismo (4) Espírito Esportivo (9) Temperamento (19)

Perfil

Estilo de Treinamento Democrático
Licença Continental Pro
Determinação 10
Gestão de Pessoas 14
Motivação 6
Disciplina 9
Satisfação no Trabalho
86%
Fadiga
0%
Função Olheiro
Salário 107.5K p/s
Contrato 14.03.2027

Desempenho

Comportamento Bom
Eficácia do Treinamento
34%
Desenvolvimento do Jogador
40%
Prevenção de Lesões
25%
Implementação Tática
45%

Eventos Recentes

Negociação de contrato iniciada agora
Participou de uma reunião de recrutamento agora
Negociação de contrato iniciada agora
Negociação de contrato iniciada agora
Negociação de contrato iniciada agora
Negociação de contrato iniciada 7d atrás
Negociação de contrato iniciada 7d atrás
Negociação de contrato iniciada 7d atrás

Monitorando agora

177
Jogador Clube Status Habilidade Confiança Observado Última observação Último voto
Marcel Ruiz Toluca Ativo 139 / 151 40% 10 30.12.2026 -
Pedrinho Shakhtar Ativo 132 / 146 40% 3 30.12.2026 -
Mathias Jensen Brentford Ativo 151 / 153 40% 1 30.12.2026 -
Niklas Steffen Thun Ativo 120 / 120 40% 5 29.12.2026 -
Marcos Antonio Sport Recife Ativo 141 / 155 40% 2 29.12.2026 -
Nicolás Sumavil Platense Ativo 108 / 118 40% 2 29.12.2026 -
Christos Zafeiris Galatasaray Ativo 151 / 138 40% 2 29.12.2026 -
Igor Nikić Mirandés Ativo 125 / 121 40% 2 29.12.2026 -
Yerson Mosquera Wolverhampton Ativo 143 / 139 40% 1 29.12.2026 -
Jackson Muleka Konyaspor Ativo 127 / 136 40% 1 27.12.2026 -
Yorbe Vertessen Red Bull Salzburg Ativo 132 / 126 40% 1 27.12.2026 -
Nuno Moreira Vasco da Gama Ativo 131 / 128 40% 1 27.12.2026 -
Pascal Loretz Luzern Ativo 122 / 130 40% 3 26.12.2026 -
Justin Hammel Grasshopper Ativo 125 / 125 40% 2 26.12.2026 -
Edoardo Corvi Parma Ativo 126 / 132 40% 2 26.12.2026 -
Esequiel Barco Spartak Moscow Ativo 147 / 136 40% 5 25.12.2026 -
José Paradela Cruz Azul Ativo 141 / 123 40% 4 25.12.2026 -
Diogo Gonçalves Konyaspor Ativo 125 / 121 40% 1 25.12.2026 -
Alexandr Chernikov Krasnodar Ativo 131 / 128 40% 1 25.12.2026 -
Renan Lodi Atlético Mineiro Ativo 136 / 147 40% 2 23.12.2026 -
Félix Lemaréchal Club Brugge Ativo 132 / 132 40% 2 23.12.2026 -
Lucas Torreira Galatasaray Ativo 156 / 164 40% 2 22.12.2026 -
Stephen Eustáquio Swansea City Ativo 131 / 134 40% 1 22.12.2026 -
Gorka Guruzeta Athletic Bilbao Ativo 144 / 147 40% 1 22.12.2026 -
Mauro Arambarri River Plate Ativo 157 / 144 40% 3 21.12.2026 -
Nemanja Radonjić Crvena Zvezda Ativo 133 / 137 40% 3 21.12.2026 -
Lukáš Provod Slavia Prague Ativo 143 / 143 40% 3 20.12.2026 -
Carl Rushworth Coventry City Ativo 139 / 134 40% 3 20.12.2026 -
Beau Reus Waasland-Beveren Ativo 133 / 115 40% 1 20.12.2026 -
Iqraam Rayners Mamelodi Sundowns Ativo 127 / 124 40% 1 20.12.2026 -
Carlos Rodríguez Cruz Azul Ativo 124 / 146 40% 3 18.12.2026 -
Benjamin Henrichs RB Leipzig Ativo 144 / 135 40% 2 18.12.2026 -
Kenny Tete Fulham Ativo 151 / 148 40% 2 18.12.2026 -
Iñaki Peña Panathinaikos Ativo 145 / 144 40% 2 17.12.2026 -
George Wickens Lincoln City Ativo 118 / 110 40% 1 17.12.2026 -
Adama Traoré Deportivo La Coruña Ativo 147 / 128 40% 4 16.12.2026 -
Axel Openda KV Oostende Ativo 139 / 133 40% 2 16.12.2026 -
Jamie Cumming Oxford United Ativo 128 / 116 40% 2 14.12.2026 -
Bilal Bayazıt Kayserispor Ativo 127 / 130 40% 1 14.12.2026 -
Roger Brugué Levante Ativo 125 / 133 40% 1 13.12.2026 -
Malcom Al Jazira Ativo 151 / 135 40% 1 13.12.2026 -
Alejandro Zendejas Club America Ativo 152 / 125 40% 2 12.12.2026 -
Gustavo Puerta Racing Santander Ativo 129 / 131 40% 2 12.12.2026 -
Sergio Carreira Celta Ativo 132 / 142 40% 1 12.12.2026 -
Jakub Stolarczyk Leicester City Ativo 136 / 127 40% 4 11.12.2026 -
Ben Voll St. Pauli Ativo 130 / 125 40% 1 11.12.2026 -
Hidemasa Morita Hull City Ativo 138 / 142 40% 2 09.12.2026 -
Anthony Racioppi Sion Ativo 126 / 117 40% 2 09.12.2026 -
Jakub Surovčík Sparta Prague Ativo 114 / 120 40% 1 09.12.2026 -
Robin Risser RC Lens Ativo 135 / 132 40% 1 09.12.2026 -
Theo Bongonda Al-Faisaly Ativo 128 / 134 40% 1 09.12.2026 -
Jesus Sinisterra Sevilla Ativo 141 / 135 40% 3 08.12.2026 -
Bernardo TSG Hoffenheim Ativo 146 / 147 40% 3 08.12.2026 -
Lucas Piton Vasco da Gama Ativo 128 / 142 40% 1 07.12.2026 -
Rubens Dinamo Moscow Ativo 123 / 129 40% 1 07.12.2026 -
Kostantis Tzolakis Hull City Ativo 133 / 141 40% 4 06.12.2026 -
Grégoire Coudert Burnley Ativo 134 / 127 40% 4 06.12.2026 -
Alexis Vega Toluca Ativo 139 / 158 40% 4 04.12.2026 -
Vitinho Botafogo Ativo 135 / 123 40% 2 04.12.2026 -
Mauro Silveira Junior Ativo 112 / 113 40% 2 03.12.2026 -
Mads Hedenstad AGF Ativo 118 / 114 40% 1 03.12.2026 -
Zizo Al Ahly Ativo 131 / 131 40% 1 03.12.2026 -
Andreas Pereira Palmeiras Ativo 129 / 139 40% 1 03.12.2026 -
Matheus Pereira Cruzeiro Ativo 144 / 152 40% 1 03.12.2026 -
Orbelín Pineda Monterrey Ativo 141 / 128 40% 3 01.12.2026 -
Zeno Debast Sporting CP Ativo 135 / 137 40% 1 01.12.2026 -
Alexandre Penetra AZ Ativo 144 / 127 40% 1 01.12.2026 -
İsmail Yüksek Fenerbahce Ativo 131 / 117 40% 1 01.12.2026 -
Isi Palazón Rayo Vallecano Ativo 150 / 134 40% 3 29.11.2026 -
Chris Brady Chicago Fire Ativo 119 / 122 40% 4 28.11.2026 -
Rome-Jayden Owusu-Oduro AZ Ativo 125 / 136 40% 1 27.11.2026 -
Riqui Puig LA Galaxy Ativo 145 / 115 40% 3 26.11.2026 -
Luiz Júnior Villarreal Ativo 153 / 153 40% 2 26.11.2026 -
Yehvann Diouf OGC Nice Ativo 131 / 127 40% 1 26.11.2026 -
Nazar Voloshyn Dynamo Kyiv Ativo 123 / 137 40% 1 26.11.2026 -
Andrés Gómez Vasco da Gama Ativo 135 / 133 40% 1 23.11.2026 -
Urko Izeta Cádiz Ativo 136 / 138 40% 1 23.11.2026 -
Paulinho Palmeiras Ativo 149 / 157 40% 1 23.11.2026 -
Marquinhos Spartak Moscow Ativo 124 / 125 40% 4 22.11.2026 -
Malang Sarr RC Lens Ativo 132 / 138 40% 2 22.11.2026 -
Christian Kouamé Aris Thessaloniki Ativo 126 / 120 40% 1 22.11.2026 -
Owen Wijndal Ajax Ativo 141 / 130 40% 1 22.11.2026 -
Leonardo Lelo Braga Ativo 130 / 135 40% 1 22.11.2026 -
Galeno Al-Ahli Ativo 139 / 147 40% 1 19.11.2026 -
Antonio Gomis Vizela Ativo 115 / 126 40% 1 18.11.2026 -
Henry Mosquera Bragantino Ativo 126 / 117 40% 1 18.11.2026 -
Alvyn Sanches Young Boys Ativo 128 / 125 40% 1 18.11.2026 -
Chiquinho Alverca Ativo 131 / 136 40% 1 18.11.2026 -
Michy Fellaini KV Oostende Ativo 134 / 148 40% 3 15.11.2026 -
Gonzalo Plata Dinamo Moscow Ativo 126 / 123 40% 3 13.11.2026 -
Soufiane Rahimi Al Ain Ativo 130 / 133 40% 1 13.11.2026 -
Håkon Evjen Bodo/Glimt Ativo 125 / 137 40% 2 12.11.2026 -
Lorenzo Amatucci Deportivo La Coruña Ativo 123 / 133 40% 1 12.11.2026 -
Brian Rodríguez Club America Ativo 123 / 142 40% 1 12.11.2026 -
Gérson Cruzeiro Ativo 149 / 148 40% 2 10.11.2026 -
Jon Guridi Sevilla Ativo 133 / 141 40% 1 10.11.2026 -
Mio Backhaus SC Freiburg Ativo 134 / 130 40% 2 09.11.2026 -
Fabian Rieder FC Augsburg Ativo 144 / 141 40% 3 06.11.2026 -
Anton Kade FC Augsburg Ativo 139 / 120 40% 1 06.11.2026 -
Jesús Angulo Tigres Ativo 146 / 116 40% 3 04.11.2026 -
Felipe Zenobio Tigre Ativo 132 / 112 40% 4 04.11.2026 -
Ruslan Neshcheret Dynamo Kyiv Ativo 126 / 111 40% 1 04.11.2026 -
Héctor Bellerín Betis Ativo 137 / 137 40% 4 02.11.2026 -
Sandro Las Palmas Ativo 132 / 146 40% 2 02.11.2026 -
Juan Brunetta Tigres Ativo 129 / 139 40% 6 01.11.2026 -
Ángel Correa River Plate Ativo 133 / 156 40% 2 01.11.2026 -
Luca Orellano Monterrey Ativo 146 / 125 40% 3 30.10.2026 -
Gedson Fernandes Spartak Moscow Ativo 129 / 135 40% 1 30.10.2026 -
Bećir Omeragić Basel Ativo 136 / 143 40% 1 30.10.2026 -
Grischa Prömel Heidenheim Ativo 137 / 147 40% 1 30.10.2026 -
Jens Petter Hauge Bodo/Glimt Ativo 135 / 134 40% 3 29.10.2026 -
Lukas Gütlbauer Wolfsberger AC Ativo 113 / 104 40% 1 29.10.2026 -
Michael Cooper Sheffield United Ativo 126 / 133 40% 1 25.10.2026 -
Marc Roca Betis Ativo 131 / 140 40% 1 25.10.2026 -
Thierry Rendall Correia Venezia Ativo 143 / 132 40% 1 24.10.2026 -
Hicham Boudaoui OGC Nice Ativo 131 / 133 40% 1 24.10.2026 -
Tyrell Malacia Leicester City Ativo 136 / 127 40% 1 24.10.2026 -
Martinelli Fluminense Ativo 141 / 144 40% 1 23.10.2026 -
Sampson Dweh Viktoria Plzen Ativo 135 / 143 40% 1 23.10.2026 -
Ştefan Târnovanu FCSB Ativo 113 / 114 40% 1 22.10.2026 -
Svetoslav Vutsov Levski Ativo 115 / 127 40% 1 22.10.2026 -
Sławomir Abramowicz Jagiellonia Ativo 122 / 131 40% 1 22.10.2026 -
Talles Magno New York City Ativo 117 / 113 40% 2 20.10.2026 -
Ramón Juárez Club America Ativo 125 / 116 40% 1 20.10.2026 -
Helinho Toluca Ativo 135 / 134 40% 1 20.10.2026 -
Maurits Kjærgaard Red Bull Salzburg Ativo 121 / 127 40% 2 17.10.2026 -
Pablo Solari Spartak Moscow Ativo 139 / 131 40% 1 17.10.2026 -
Max Bird Birmingham Ativo 132 / 140 40% 1 17.10.2026 -
Juan Bisanz Huracán Ativo 128 / 111 40% 1 16.10.2026 -
Gustavo Mantuan Zenit Ativo 141 / 140 40% 1 16.10.2026 -
Sergio Reguilón Inter Miami CF Ativo 141 / 138 40% 1 15.10.2026 -
Cesar Corona Veracruz Ativo 129 / 134 40% 2 13.10.2026 -
Adrià Altimira Deportivo La Coruña Ativo 135 / 125 40% 1 13.10.2026 -
Andreas Jungdal Westerlo Ativo 110 / 131 40% 1 11.10.2026 -
Josip Juranović Union Berlin Ativo 144 / 149 40% 2 10.10.2026 -
Yuma Suzuki Kashima Antlers Ativo 129 / 124 40% 1 09.10.2026 -
Axel Alderweireld KV Oostende Ativo 144 / 150 40% 1 08.10.2026 -
Arijanet Murić Sassuolo Ativo 133 / 148 40% 1 07.10.2026 -
Lucas Lavagnino Valladolid Ativo 114 / 114 40% 1 07.10.2026 -
Evander FC Cincinnati Ativo 137 / 147 40% 1 06.10.2026 -
Nicolás Fernández Mercau New York City Ativo 123 / 120 40% 2 05.10.2026 -
Óliver Monterrey Ativo 147 / 129 40% 3 05.10.2026 -
Jefferson Savarino Fluminense Ativo 132 / 139 40% 1 05.10.2026 -
Ritsu Doan Gamba Osaka Ativo 157 / 141 40% 2 03.10.2026 -
Jonathan Bamba Chicago Fire Ativo 138 / 148 40% 1 03.10.2026 -
Kota Tawaratsumida FC Tokyo Ativo 144 / 138 40% 1 01.10.2026 -
Antony Portland Timbers Ativo 120 / 114 40% 1 01.10.2026 -
Christian Früchtl Red Bull Salzburg Ativo 123 / 111 40% 1 29.09.2026 -
Keisuke Osako Sanfrecce Hiroshima Ativo 127 / 136 40% 1 29.09.2026 -
Aitor Ruibal Betis Ativo 138 / 149 40% 1 28.09.2026 -
Sem Westerveld Zaragoza Ativo 118 / 119 40% 1 28.09.2026 -
Erik Lira Cruz Azul Ativo 147 / 142 40% 2 24.09.2026 -
Nico Melamed Almería Ativo 137 / 130 40% 1 24.09.2026 -
Facundo Bernal Betis Ativo 126 / 143 40% 1 24.09.2026 -
Iván Martín Racing Club Ativo 131 / 128 40% 1 23.09.2026 -
Alan Lescano Argentinos Juniors Ativo 118 / 121 40% 1 23.09.2026 -
Guilherme Fernandes Córdoba Ativo 127 / 140 40% 1 21.09.2026 -
Jonas Urbig Bayern Munich Ativo 136 / 149 40% 1 21.09.2026 -
Sergej Milinković-Savić Al-Hilal Ativo 146 / 140 40% 1 19.09.2026 -
Felipe Augusto Zenit Ativo 134 / 123 40% 1 17.09.2026 -
John Pulskamp Sporting Kansas City Ativo 107 / 112 40% 1 15.09.2026 -
Ander Guevara Alavés Ativo 131 / 127 40% 2 14.09.2026 -
Denis Bouanga Los Angeles Football Club Ativo 127 / 127 40% 1 14.09.2026 -
Leon Bailey Aston Villa Ativo 141 / 141 40% 1 09.09.2026 -
Allan Saint-Maximin Charlotte Football Club Ativo 154 / 148 40% 1 09.09.2026 -
Arnaud Noël Chamois Niortais Ativo 126 / 133 40% 1 08.09.2026 -
Djordje Mihailović Toronto FC Ativo 121 / 123 40% 1 08.09.2026 -
Alejandro Balde Barcelona Ativo 161 / 148 40% 1 03.09.2026 -
Rodrigo Garro Corinthians Ativo 141 / 122 40% 1 03.09.2026 -
Saša Lukić Ipswich Town Ativo 135 / 139 40% 2 02.09.2026 -
Marco Asensio Fenerbahce Ativo 158 / 150 40% 1 02.09.2026 -
Kristijan Jakić FC Augsburg Ativo 143 / 130 40% 1 01.09.2026 -
David Santos Daiber Bayern Munich Ativo 107 / 120 40% 1 31.08.2026 -
Kyle Walker-Peters West Ham United Ativo 144 / 136 40% 1 28.08.2026 -
Agustín Palavecino Cruz Azul Ativo 127 / 147 40% 1 26.08.2026 -
Kingsley Coman Al-Nassr Ativo 153 / 169 40% 1 26.08.2026 -
Arjan Malić Sturm Graz Ativo 122 / 126 40% 1 01.08.2026 -